Scott City, MO

9:01 PM CDT on July 28, 2016 (GMT -0500)
Cape Girardeau Regional | | Change Station

Elev 341 ft 37.23 °N, 89.57 °W | Updated 8 minutes ago

Partly Cloudy
Partly Cloudy
76 °F
Feels Like 76 °F
N
6
Wind Variable Wind from West

Today
High -- | Low -- °F
--% Chance of Precip.
Yesterday
High -- | Low -- °F
Precip. -- in
Pressure 29.89 in
Visibility 10.0 miles
Clouds Few 5000 ft
Dew Point 73 °F
Humidity 91%
Rainfall 0.80 in
Snow Depth Not available.
6:00 AM 8:08 PM
Waning Crescent, 26% visible
METAR KCGI 290153Z AUTO 26005KT 10SM FEW050 24/23 A2990 RMK AO2 LTG DSNT N AND NW SLP122 T02440228
Pressure 29.89 in
Visibility 10.0 miles
Clouds Few 5000 ft
Dew Point 73 °F
Humidity 91%
Rainfall 0.80 in
Snow Depth Not available.
6:00 AM 8:08 PM
Waning Crescent, 26% visible
METAR KCGI 290153Z AUTO 26005KT 10SM FEW050 24/23 A2990 RMK AO2 LTG DSNT N AND NW SLP122 T02440228

10-Day Weather Forecast

Almanac

Astronomy

Jul. 28, 2016 Rise Set
Actual Time
Civil Twilight
Nautical Twilight
Astronomical Twilight
Moon
Length of Visible Light
Length of Day
Tomorrow will be .
, % of the Moon is Illuminated

Today's Extremes

State Highs State Lows

Community

WunderPhotos

Upload Photos

1,928,265 photos uploaded!

WunderBlog® & News

Nearby

Air Quality

  Air Quality AQ Index Pollutant
Not available.

Snow Depth

Station Depth Elevation

Earthquake Activity

City Distance Mag. Time & Date
Minimum magnitude displayed is 2.5.

Coastal Water Temperatures

Place Temperature

Stations

Nearby Weather Stations

Station Location Temp. Windchill Dew Point Humidity Wind Precip. Elev Updated Type
                   

Watches & Warnings

There are currently no watches in effect.